createdAt,value
2023-02-13T00:04:09.587Z,97733.47
2023-02-13T00:09:11.295Z,97733.59
2023-02-13T00:14:12.926Z,97732.94
2023-02-13T00:19:17.141Z,97736.56
2023-02-13T00:24:20.940Z,97732.06
2023-02-13T00:29:24.783Z,97733.78
2023-02-13T00:34:29.822Z,97738.22
2023-02-13T00:39:31.350Z,97738.66
2023-02-13T00:44:35.901Z,97727.94
2023-02-13T00:49:37.402Z,97734.25
2023-02-13T00:54:38.905Z,97737.09
2023-02-13T00:59:44.546Z,97733.72
2023-02-13T01:04:46.063Z,97731.91
2023-02-13T01:09:50.831Z,97734.72
2023-02-13T01:14:56.245Z,97736.16
2023-02-13T01:19:57.881Z,97737.06
2023-02-13T01:24:59.545Z,97718.22
2023-02-13T01:30:13.604Z,97718.94
2023-02-13T01:35:17.714Z,97723.94
2023-02-13T01:40:23.799Z,97713.22
2023-02-13T01:45:32.186Z,97719.56
2023-02-13T01:50:39.691Z,97707.44
2023-02-13T01:55:50.592Z,97715.34
2023-02-13T02:00:52.289Z,97716.75
2023-02-13T02:05:56.993Z,97717.03
2023-02-13T02:11:07.188Z,97709.84
2023-02-13T02:16:08.894Z,97714.06
2023-02-13T02:21:10.470Z,97713.84
2023-02-13T02:26:28.289Z,97696.94
2023-02-13T02:32:05.083Z,97702.72
2023-02-13T02:37:18.598Z,97689.31
2023-02-13T02:42:34.961Z,97684.00
2023-02-13T02:48:12.808Z,97683.53
2023-02-13T02:53:39.766Z,97684.44
2023-02-13T02:59:00.545Z,97695.03
2023-02-13T03:04:23.466Z,97686.41
2023-02-13T03:09:58.981Z,97694.84
2023-02-13T03:15:01.596Z,97692.13
2023-02-13T03:20:37.689Z,97691.03
2023-02-13T03:25:59.969Z,97696.44
2023-02-13T03:31:20.432Z,97699.13
2023-02-13T03:36:49.422Z,97693.22
2023-02-13T03:47:03.516Z,97704.13
2023-02-13T03:52:16.422Z,97698.94
2023-02-13T03:57:41.213Z,97701.84
2023-02-13T04:02:52.362Z,97697.94
2023-02-13T04:07:54.008Z,97702.75
2023-02-13T04:13:15.479Z,97693.75
2023-02-13T04:18:25.349Z,97690.44
2023-02-13T04:23:26.884Z,97687.63
2023-02-13T04:28:28.475Z,97683.81
2023-02-13T04:33:41.009Z,97691.81
2023-02-13T04:38:45.945Z,97688.53
2023-02-13T04:43:47.518Z,97692.22
2023-02-13T04:48:55.325Z,97688.91
2023-02-13T04:53:59.599Z,97687.19
2023-02-13T04:59:03.481Z,97679.09
2023-02-13T05:04:05.121Z,97681.50
2023-02-13T05:09:09.967Z,97679.59
2023-02-13T05:14:14.007Z,97677.38
2023-02-13T05:19:18.534Z,97686.28
2023-02-13T05:24:22.328Z,97684.69
2023-02-13T05:29:28.574Z,97696.78
2023-02-13T05:34:39.551Z,97697.00
2023-02-13T05:39:43.373Z,97698.31
2023-02-13T05:44:47.610Z,97695.50
2023-02-13T05:49:51.978Z,97705.53
2023-02-13T05:54:53.538Z,97706.31
2023-02-13T05:59:55.084Z,97712.25
2023-02-13T06:05:03.596Z,97715.44
2023-02-13T06:10:07.244Z,97720.53
2023-02-13T06:15:09.103Z,97722.63
2023-02-13T06:20:11.105Z,97728.03
2023-02-13T06:25:15.017Z,97736.66
2023-02-13T06:30:19.202Z,97743.59
2023-02-13T06:35:20.802Z,97748.09
2023-02-13T06:40:26.511Z,97743.69
2023-02-13T06:45:28.020Z,97748.72
2023-02-13T06:50:29.599Z,97759.09
2023-02-13T06:55:31.094Z,97759.00
2023-02-13T07:00:32.776Z,97759.00
2023-02-13T07:05:41.127Z,97758.03
2023-02-13T07:10:43.137Z,97769.66
2023-02-13T07:15:44.898Z,97773.16
2023-02-13T07:20:47.601Z,97765.72
2023-02-13T07:25:54.094Z,97769.13
2023-02-13T07:30:56.399Z,97776.81
2023-02-13T07:36:05.863Z,97777.19
2023-02-13T07:41:09.465Z,97780.59
2023-02-13T07:46:10.963Z,97777.59
2023-02-13T07:51:14.606Z,97773.25
2023-02-13T07:56:16.112Z,97773.25
2023-02-13T08:01:20.232Z,97776.47
2023-02-13T08:06:24.420Z,97774.94
2023-02-13T08:11:53.294Z,97769.38
2023-02-13T08:16:57.685Z,97766.06
2023-02-13T08:22:01.482Z,97774.38
2023-02-13T08:27:05.334Z,97772.81
2023-02-13T08:32:09.209Z,97783.53
2023-02-13T08:37:10.732Z,97779.25
2023-02-13T08:42:15.832Z,97783.44
2023-02-13T08:47:20.929Z,97785.72
2023-02-13T08:52:31.820Z,97796.91
2023-02-13T08:57:38.565Z,97792.19
2023-02-13T09:02:40.204Z,97791.44
2023-02-13T09:07:44.584Z,97794.19
2023-02-13T09:12:52.788Z,97793.75
2023-02-13T09:17:56.625Z,97789.31
2023-02-13T09:22:58.300Z,97791.69
2023-02-13T09:28:00.010Z,97791.69
2023-02-13T09:33:05.098Z,97787.56
2023-02-13T09:38:09.820Z,97786.47
2023-02-13T09:43:19.574Z,97786.63
2023-02-13T09:48:29.805Z,97783.28
2023-02-13T09:53:38.102Z,97792.41
2023-02-13T09:58:46.250Z,97791.78
2023-02-13T10:04:28.312Z,97793.06
2023-02-13T10:09:53.559Z,97792.13
2023-02-13T10:15:03.506Z,97797.44
2023-02-13T10:20:24.869Z,97800.78
2023-02-13T10:25:30.440Z,97803.38
2023-02-13T10:30:38.760Z,97795.06
2023-02-13T10:35:58.992Z,97800.84
2023-02-13T10:41:25.650Z,97802.31
2023-02-13T10:47:04.761Z,97798.84
2023-02-13T10:52:33.058Z,97798.34
2023-02-13T10:57:59.641Z,97788.63
2023-02-13T11:03:01.725Z,97784.66
2023-02-13T11:08:04.173Z,97786.06
2023-02-13T11:13:37.018Z,97778.56
2023-02-13T11:18:41.502Z,97777.34
2023-02-13T11:23:49.760Z,97783.09
2023-02-13T11:29:01.034Z,97793.97
2023-02-13T11:34:25.925Z,97785.34
2023-02-13T11:39:27.434Z,97790.28
2023-02-13T11:44:31.425Z,97793.00
2023-02-13T11:49:48.742Z,97787.06
2023-02-13T11:55:05.420Z,97784.34
2023-02-13T12:00:31.170Z,97786.91
2023-02-13T12:05:35.573Z,97785.94
2023-02-13T12:10:41.711Z,97778.88
2023-02-13T12:15:53.917Z,97779.81
2023-02-13T12:21:01.737Z,97773.88
2023-02-13T12:26:31.402Z,97766.69
2023-02-13T12:31:48.035Z,97756.72
2023-02-13T12:37:14.362Z,97751.91
2023-02-13T12:42:21.352Z,97746.28
2023-02-13T12:47:29.024Z,97743.38
2023-02-13T12:53:01.287Z,97745.78
2023-02-13T12:58:19.207Z,97741.59
2023-02-13T13:03:46.266Z,97733.13
2023-02-13T13:08:47.805Z,97732.47
2023-02-13T13:13:59.136Z,97727.31
2023-02-13T13:19:03.685Z,97730.41
2023-02-13T13:24:37.753Z,97727.50
2023-02-13T13:29:46.705Z,97717.75
2023-02-13T13:34:51.844Z,97723.69
2023-02-13T13:40:00.730Z,97715.16
2023-02-13T13:45:30.531Z,97719.16
2023-02-13T13:50:38.404Z,97722.69
2023-02-13T13:56:10.574Z,97716.44
2023-02-13T14:01:15.351Z,97710.34
2023-02-13T14:06:20.051Z,97717.19
2023-02-13T14:11:32.359Z,97715.28
2023-02-13T14:16:38.960Z,97714.16
2023-02-13T14:21:40.548Z,97720.88
2023-02-13T14:26:52.467Z,97721.31
2023-02-13T14:32:07.781Z,97720.53
2023-02-13T14:37:20.580Z,97724.72
2023-02-13T14:42:28.299Z,97723.78
2023-02-13T14:47:35.220Z,97710.19
2023-02-13T14:52:43.913Z,97710.06
2023-02-13T14:57:56.490Z,97710.38
2023-02-13T15:03:23.749Z,97696.28
2023-02-13T15:08:30.593Z,97698.22
2023-02-13T15:13:37.723Z,97701.72
2023-02-13T15:18:48.934Z,97713.75
2023-02-13T15:23:55.332Z,97698.53
2023-02-13T15:29:03.740Z,97701.91
2023-02-13T15:34:23.017Z,97698.28
2023-02-13T15:39:31.737Z,97702.28
2023-02-13T15:44:36.956Z,97705.34
2023-02-13T15:49:43.036Z,97706.81
2023-02-13T15:54:54.359Z,97703.91
2023-02-13T15:59:57.658Z,97695.47
2023-02-13T16:05:03.746Z,97699.63
2023-02-13T16:10:37.534Z,97704.13
2023-02-13T16:15:42.944Z,97691.19
2023-02-13T16:20:53.042Z,97687.66
2023-02-13T16:26:05.941Z,97687.16
2023-02-13T16:31:19.280Z,97684.78
2023-02-13T16:36:29.618Z,97695.50
2023-02-13T16:41:36.074Z,97704.66
2023-02-13T16:46:51.043Z,97703.41
2023-02-13T16:51:58.747Z,97698.56
2023-02-13T16:57:19.638Z,97712.53
2023-02-13T17:02:35.306Z,97709.00
2023-02-13T17:07:45.082Z,97713.63
2023-02-13T17:12:59.638Z,97715.72
2023-02-13T17:18:01.139Z,97712.88
2023-02-13T17:23:07.944Z,97725.19
2023-02-13T17:28:18.784Z,97731.72
2023-02-13T17:33:36.121Z,97723.91
2023-02-13T17:38:37.639Z,97728.06
2023-02-13T17:43:39.232Z,97730.63
2023-02-13T17:48:43.200Z,97728.25
2023-02-13T17:53:44.883Z,97727.75
2023-02-13T17:58:50.259Z,97725.03
2023-02-13T18:03:53.707Z,97719.91
2023-02-13T18:08:58.133Z,97714.81
2023-02-13T18:14:03.196Z,97725.50
2023-02-13T18:19:07.204Z,97716.56
2023-02-13T18:24:08.868Z,97714.50
2023-02-13T18:29:12.808Z,97706.34
2023-02-13T18:34:19.538Z,97712.88
2023-02-13T18:39:22.400Z,97705.06
2023-02-13T18:44:30.627Z,97706.16
2023-02-13T18:49:35.868Z,97714.97
2023-02-13T18:54:39.776Z,97723.47
2023-02-13T18:59:44.043Z,97710.78
2023-02-13T19:04:48.051Z,97714.63
2023-02-13T19:09:51.893Z,97715.75
2023-02-13T19:14:56.866Z,97723.09
2023-02-13T19:19:59.675Z,97717.97
2023-02-13T19:25:06.410Z,97715.59
2023-02-13T19:30:09.600Z,97713.50
2023-02-13T19:35:12.486Z,97711.13
2023-02-13T19:40:16.575Z,97707.91
2023-02-13T19:45:18.186Z,97706.94
2023-02-13T19:50:21.202Z,97702.16
2023-02-13T19:55:24.641Z,97704.88
2023-02-13T20:00:26.434Z,97708.38
2023-02-13T20:05:28.060Z,97707.25
2023-02-13T20:10:29.889Z,97716.84
2023-02-13T20:15:32.407Z,97711.72
2023-02-13T20:20:38.787Z,97702.47
2023-02-13T20:25:43.198Z,97711.72
2023-02-13T20:30:46.652Z,97705.81
2023-02-13T20:35:48.316Z,97707.72
2023-02-13T20:40:49.955Z,97706.13
2023-02-13T20:45:51.612Z,97689.50
2023-02-13T20:51:01.166Z,97676.56
2023-02-13T20:56:05.421Z,97680.88
2023-02-13T21:01:15.404Z,97674.66
2023-02-13T21:06:17.088Z,97669.97
2023-02-13T21:11:19.416Z,97680.38
2023-02-13T21:16:24.118Z,97681.00
2023-02-13T21:21:32.054Z,97670.97
2023-02-13T21:26:36.983Z,97666.28
2023-02-13T21:31:45.543Z,97664.38
2023-02-13T21:36:52.350Z,97668.19
2023-02-13T21:41:53.986Z,97672.81
2023-02-13T21:46:55.713Z,97671.53
2023-02-13T21:51:57.301Z,97661.94
2023-02-13T21:56:58.900Z,97664.50
2023-02-13T22:02:04.481Z,97676.00
2023-02-13T22:07:06.089Z,97670.25
2023-02-13T22:12:15.698Z,97670.72
2023-02-13T22:17:17.279Z,97666.44
2023-02-13T22:22:18.856Z,97663.22
2023-02-13T22:27:30.124Z,97669.28
2023-02-13T22:32:31.680Z,97661.16
2023-02-13T22:37:33.223Z,97654.09
2023-02-13T22:42:37.977Z,97662.09
2023-02-13T22:47:43.968Z,97660.97
2023-02-13T22:52:47.850Z,97658.25
2023-02-13T22:57:55.693Z,97656.97
2023-02-13T23:02:57.384Z,97655.69
2023-02-13T23:08:01.537Z,97656.00
2023-02-13T23:13:03.265Z,97655.81
2023-02-13T23:18:14.184Z,97662.38
2023-02-13T23:23:18.149Z,97661.88
2023-02-13T23:28:20.858Z,97663.63
2023-02-13T23:33:24.809Z,97663.16
2023-02-13T23:38:28.698Z,97665.88
2023-02-13T23:43:30.205Z,97653.41
2023-02-13T23:48:35.929Z,97658.31
2023-02-13T23:53:37.611Z,97651.63
2023-02-13T23:58:41.889Z,97651.94
